Chihuahua Valley (212) Station Data

Red Flag Warning: No
Fire Weather Zone: 258
SDGE Region: Ramona
Lat/Lon: 33.387/-116.661

Observations

Time Wind Speed/Gust Temp(F) RH Fuel Moist Fuel Temp(F) Dewpt(F) Tmax(F) Tmin(F) Accum Precip 10-min Precip SL Press(mb)
2/27 11:40pm 252 4 G 7 40° 97% - - 39° 44.6° 33.1° - - 1012.0
2/27 11:20pm 238 5 G 7 40° 97% - - 39° 44.6° 33.1° - - 1012.0
2/27 11:10pm 231 3 G 8 40° 97% - - 39° 44.6° 33.1° - - 1012.0
2/27 11:00pm 271 5 G 9 40° 97% - - 39° 44.6° 33.1° - - 1012.0
2/27 10:50pm 277 7 G 13 40° 97% - - 40° 44.6° 33.1° - - 1012.0
2/27 10:40pm 286 8 G 14 41° 97% - - 40° 44.6° 33.1° - - 1012.0
2/27 10:30pm 258 8 G 12 41° 97% - - 40° 44.6° 33.1° - - 1012.0
2/27 10:20pm 252 6 G 11 41° 97% - - 40° 44.6° 33.1° - - 1012.0
2/27 10:10pm 251 6 G 12 41° 97% - - 40° 44.6° 33.1° - - 1012.0
2/27 10:00pm 229 9 G 19 41° 97% - - 41° 44.6° 33.1° - - 1011.0
2/27 9:50pm 219 10 G 19 42° 97% - - 41° 44.6° 33.1° - - 1011.0
2/27 9:40pm 197 13 G 24 41° 97% - - 41° 44.6° 33.1° - - 1011.0
2/27 9:30pm 208 10 G 19 42° 97% - - 41° 44.6° 33.1° - - 1011.0
2/27 9:20pm 201 8 G 14 42° 97% - - 41° 44.6° 33.1° - - 1011.0
2/27 9:10pm 208 5 G 10 42° 97% - - 41° 44.6° 33.1° - - 1011.0
2/27 9:00pm 224 6 G 12 41° 97% - - 41° 44.6° 33.1° - - 1011.0
2/27 8:50pm 238 6 G 15 41° 97% - - 41° 44.6° 33.1° - - 1011.0
2/27 8:40pm 230 7 G 13 42° 97% - - 41° 44.6° 33.1° - - 1011.0
2/27 8:30pm 216 13 G 27 42° 97% - - 41° 44.6° 33.1° - - 1011.0
2/27 8:20pm 216 11 G 22 42° 97% - - 41° 44.6° 33.1° - - 1011.0
2/27 8:10pm 206 7 G 20 42° 97% - - 41° 44.6° 33.1° - - 1011.0
2/27 8:00pm 206 6 G 11 42° 97% - - 41° 44.6° 33.1° - - 1011.0
2/27 7:50pm 214 5 G 10 42° 97% - - 41° 44.6° 33.1° - - 1011.0
2/27 7:40pm 190 7 G 12 42° 97% - - 41° 44.6° 33.1° - - 1011.0
2/27 7:30pm 193 7 G 14 42° 97% - - 41° 44.6° 33.1° - - 1011.0
2/27 7:20pm 219 8 G 15 42° 97% - - 41° 44.6° 33.1° - - 1011.0
2/27 7:10pm 212 7 G 14 42° 97% - - 41° 44.6° 33.1° - - 1011.0
2/27 7:00pm 216 8 G 13 42° 97% - - 41° 44.6° 33.1° - - 1011.0
2/27 6:50pm 209 9 G 16 42° 97% - - 41° 44.6° 33.1° - - 1011.0
2/27 6:40pm 212 9 G 16 42° 97% - - 41° 44.6° 33.1° - - 1011.0
2/27 6:30pm 211 11 G 18 42° 97% - - 41° 44.6° 33.1° - - 1011.0
2/27 6:20pm 221 13 G 23 42° 97% - - 41° 44.6° 33.1° - - 1011.0
2/27 6:10pm 202 9 G 16 42° 97% - - 41° 44.6° 33.1° - - 1011.0
2/27 6:00pm 194 10 G 18 42° 97% - - 41° 44.6° 33.1° - - 1011.0
2/27 5:50pm 209 8 G 14 42° 97% - - 41° 44.6° 33.1° - - 1011.0
2/27 5:40pm 204 10 G 18 42° 97% - - 41° 44.6° 33.1° - - 1011.0
2/27 5:30pm 187 7 G 15 42° 97% - - 41° 44.6° 33.1° - - 1011.0
2/27 5:20pm 184 8 G 14 42° 97% - - 41° 44.6° 33.1° - - 1011.0
2/27 5:10pm 194 7 G 16 42° 97% - - 41° 44.6° 33.1° - - 1011.0
2/27 5:00pm 204 9 G 16 42° 97% - - 41° 44.6° 33.1° - - 1011.0
2/27 4:50pm 201 11 G 20 42° 97% - - 41° 44.6° 33.1° - - 1011.0
2/27 4:40pm 205 10 G 20 42° 97% - - 41° 44.6° 33.1° - - 1011.0
2/27 4:30pm 194 11 G 21 42° 97% - - 41° 44.6° 33.1° - - 1011.0
2/27 4:20pm 198 9 G 16 42° 97% - - 41° 44.6° 33.1° - - 1011.0
2/27 4:10pm 193 8 G 17 42° 97% - - 41° 44.6° 33.1° - - 1011.0
2/27 4:00pm 188 10 G 22 42° 97% - - 41° 44.6° 33.1° - - 1011.0
2/27 3:50pm 184 11 G 23 42° 97% - - 41° 44.6° 33.1° - - 1011.0
2/27 3:40pm 186 11 G 23 42° 97% - - 41° 44.6° 33.1° - - 1011.0
2/27 3:30pm 190 11 G 22 43° 97% - - 42° 44.6° 33.1° - - 1011.0
2/27 3:20pm 183 12 G 21 43° 97% - - 42° 44.6° 33.1° - - 1011.0
2/27 3:10pm 189 13 G 25 43° 97% - - 42° 44.6° 33.1° - - 1011.0
2/27 3:00pm 194 10 G 17 43° 97% - - 42° 44.6° 33.1° - - 1011.0
2/27 2:50pm 200 9 G 18 43° 97% - - 42° 44.6° 33.1° - - 1011.0
2/27 2:40pm 194 8 G 13 43° 97% - - 42° 44.6° 33.1° - - 1011.0
2/27 2:30pm 205 10 G 17 43° 97% - - 42° 44.6° 33.1° - - 1011.0
2/27 2:20pm 201 9 G 20 43° 97% - - 42° 44.6° 33.1° - - 1012.0
2/27 2:10pm 189 9 G 20 43° 96% - - 42° 44.6° 33.1° - - 1011.0
2/27 2:00pm 191 10 G 19 43° 96% - - 43° 44.6° 33.1° - - 1011.0
2/27 1:50pm 185 10 G 20 44° 96% - - 43° 44.6° 33.1° - - 1011.0
2/27 1:40pm 186 8 G 15 43° 96% - - 42° 44.6° 33.1° - - 1011.0
2/27 1:30pm 180 9 G 17 43° 96% - - 42° 44.6° 33.1° - - 1011.0
2/27 1:20pm 189 8 G 18 43° 96% - - 42° 44.6° 33.1° - - 1012.0
2/27 1:10pm 203 10 G 17 43° 96% - - 42° 44.6° 33.1° - - 1012.0
2/27 1:00pm 183 8 G 14 43° 96% - - 42° 44.6° 33.1° - - 1012.0
2/27 12:50pm 184 8 G 16 43° 96% - - 42° 44.6° 33.1° - - 1012.0
2/27 12:40pm 204 10 G 18 43° 96% - - 42° 44.6° 33.1° - - 1013.0
2/27 12:30pm 215 8 G 14 43° 96% - - 42° 44.6° 33.1° - - 1013.0
2/27 12:20pm 215 8 G 14 43° 96% - - 42° 44.6° 33.1° - - 1013.0
2/27 12:10pm 212 9 G 15 43° 96% - - 42° 44.6° 33.1° - - 1013.0
2/27 12:00pm 186 8 G 15 44° 96% - - 43° 44.6° 33.1° - - 1013.0
2/27 11:50am 189 8 G 17 44° 96% - - 43° 44.6° 33.1° - - 1013.0
2/27 11:40am 192 8 G 19 44° 96% - - 43° 44.6° 33.1° - - 1013.0
2/27 11:30am 210 11 G 20 43° 96% - - 43° 44.6° 33.1° - - 1014.0
2/27 11:20am 217 10 G 17 44° 96% - - 43° 44.6° 33.1° - - 1014.0
2/27 11:10am 214 12 G 22 44° 96% - - 43° 44.6° 33.1° - - 1014.0
2/27 11:00am 201 11 G 20 44° 96% - - 43° 44.6° 33.1° - - 1014.0
2/27 10:50am 194 10 G 21 44° 96% - - 43° 44.6° 33.1° - - 1013.0
2/27 10:40am 188 10 G 20 44° 96% - - 43° 44.6° 33.1° - - 1013.0
2/27 10:30am 193 11 G 22 44° 96% - - 43° 44.6° 33.1° - - 1013.0
2/27 10:20am 194 8 G 17 44° 96% - - 43° 44.6° 33.1° - - 1013.0
2/27 10:10am 212 8 G 16 44° 96% - - 43° 44.6° 33.1° - - 1013.0
2/27 10:00am 214 9 G 16 44° 96% - - 43° 44.6° 33.1° - - 1013.0
2/27 9:50am 205 8 G 16 44° 96% - - 43° 44.6° 33.1° - - 1013.0
2/27 9:40am 204 8 G 19 44° 96% - - 43° 44.6° 33.1° - - 1013.0
2/27 9:30am 193 6 G 12 44° 96% - - 43° 44.6° 33.1° - - 1013.0
2/27 9:20am 192 7 G 13 44° 96% - - 43° 44.6° 33.1° - - 1013.0
2/27 9:10am 198 9 G 16 44° 96% - - 43° 44.6° 33.1° - - 1013.0
2/27 9:00am 203 9 G 16 44° 96% - - 43° 44.6° 33.1° - - 1013.0
2/27 8:50am 194 8 G 17 44° 96% - - 43° 44.6° 33.1° - - 1013.0
2/27 8:40am 194 6 G 12 44° 96% - - 43° 44.5° 33.1° - - 1013.0
2/27 8:30am 197 6 G 10 44° 96% - - 43° 44.4° 33.1° - - 1013.0
2/27 8:20am 196 6 G 11 44° 96% - - 43° 44.4° 33.1° - - 1013.0
2/27 8:10am 205 7 G 15 44° 96% - - 43° 44.2° 33.1° - - 1013.0
2/27 8:00am 215 6 G 12 44° 96% - - 43° 43.9° 33.1° - - 1013.0
2/27 7:50am 191 4 G 6 43° 96% - - 42° 43.5° 33.1° - - 1013.0
2/27 7:40am 196 3 G 8 43° 96% - - 42° 43.4° 33.1° - - 1013.0
2/27 7:30am 229 5 G 10 43° 96% - - 42° 43.4° 33.1° - - 1013.0
2/27 7:20am 240 5 G 11 43° 96% - - 42° 43.2° 33.1° - - 1013.0
2/27 7:10am 224 2 G 5 42° 96% - - 41° 42.5° 33.1° - - 1013.0
2/27 7:00am 87 2 G 4 42° 96% - - 41° 42.5° 33.1° - - 1013.0
2/27 6:50am 95 2 G 4 42° 96% - - 41° 42.3° 33.1° - - 1013.0
2/27 6:40am 109 2 G 6 42° 96% - - 41° 42.2° 33.1° - - 1013.0
2/27 6:30am 76 2 G 6 42° 96% - - 41° 42.1° 33.1° - - 1013.0
2/27 6:20am 99 2 G 4 42° 96% - - 41° 42° 33.1° - - 1013.0
2/27 6:10am 231 1 G 3 42° 96% - - 41° 42° 33.1° - - 1013.0
2/27 6:00am 127 1 G 4 41° 96% - - 40° 41.4° 33.1° - - 1013.0
2/27 5:50am 178 0 G 1 41° 96% - - 40° 41.2° 33.1° - - 1013.0
2/27 5:40am 104 2 G 4 41° 97% - - 40° 41.1° 33.1° - - 1013.0
2/27 5:30am 251 1 G 3 41° 97% - - 40° 40.9° 33.1° - - 1013.0
2/27 5:20am 352 0 G 1 40° 96% - - 40° 40.7° 33.1° - - 1013.0
2/27 5:10am 224 0 G 1 40° 96% - - 39° 40.7° 33.1° - - 1013.0
2/27 5:00am 206 1 G 4 40° 96% - - 40° 40.7° 33.1° - - 1013.0
2/27 4:50am 154 2 G 6 40° 96% - - 40° 40.7° 33.1° - - 1013.0
2/27 4:40am 108 3 G 6 40° 96% - - 40° 40.7° 33.1° - - 1013.0
2/27 4:30am 98 3 G 5 40° 96% - - 39° 40.6° 33.1° - - 1013.0
2/27 4:20am 96 2 G 3 40° 96% - - 39° 40.3° 33.1° - - 1013.0
2/27 4:10am 129 1 G 3 40° 96% - - 39° 40.3° 33.1° - - 1014.0
2/27 4:00am 97 1 G 2 40° 96% - - 39° 40.2° 33.1° - - 1014.0
2/27 3:50am 144 1 G 3 40° 96% - - 39° 40.2° 33.1° - - 1014.0
2/27 3:40am 165 2 G 5 40° 96% - - 39° 40.2° 33.1° - - 1014.0
2/27 3:30am 191 2 G 4 40° 96% - - 39° 40.2° 33.1° - - 1014.0
2/27 3:20am 198 3 G 7 40° 96% - - 39° 40.2° 33.1° - - 1014.0
2/27 3:10am 198 4 G 7 40° 96% - - 39° 40.2° 33.1° - - 1014.0
2/27 3:00am 208 6 G 10 40° 96% - - 39° 40.2° 33.1° - - 1014.0
2/27 2:50am 208 4 G 8 39° 96% - - 38° 39.9° 33.1° - - 1014.0
2/27 2:40am 230 2 G 7 38° 95% - - 37° 38.7° 33.1° - - 1015.0
2/27 2:30am 327 2 G 3 37° 94% - - 36° 38.7° 33.1° - - 1015.0
2/27 2:20am 296 2 G 3 37° 94% - - 36° 38.7° 33.1° - - 1015.0
2/27 2:10am 266 2 G 4 38° 93% - - 36° 38.7° 33.1° - - 1015.0
2/27 2:00am 259 3 G 5 38° 92% - - 36° 38.7° 33.1° - - 1015.0
2/27 1:50am 225 3 G 5 38° 89% - - 35° 38.7° 33.1° - - 1015.0
2/27 1:40am 230 5 G 8 38° 86% - - 35° 38.7° 33.1° - - 1016.0
2/27 1:30am 245 6 G 10 38° 87% - - 34° 38.1° 33.1° - - 1016.0
2/27 1:20am 220 7 G 15 37° 93% - - 35° 37.6° 33.1° - - 1017.0
2/27 1:10am 187 6 G 12 35° 94% - - 34° 36° 33.1° - - 1017.0
2/27 1:00am 180 5 G 12 35° 94% - - 34° 35.5° 33.1° - - 1017.0
2/27 12:50am 189 6 G 11 35° 93% - - 33° 35.3° 33.1° - - 1017.0
2/27 12:40am 193 8 G 14 35° 91% - - 32° 35.1° 33.1° - - 1017.0
2/27 12:30am 196 10 G 15 35° 91% - - 32° 35.1° 33.1° - - 1017.0
2/27 12:20am 185 9 G 15 34° 95% - - 32° 33.8° 33.1° - - 1018.0
2/27 12:10am 184 7 G 12 33° 95% - - 32° 33.6° 33.1° - - 1018.0
2/27 12:00am 179 6 G 11 33° 95% - - 32° 41.9° 31.6° - - 1018.0
2/26 11:50pm 171 5 G 10 33° 95% - - 32° 41.9° 31.6° - - 1018.0
2/26 11:40pm 181 6 G 12 33° 95% - - 32° 41.9° 31.6° - - 1018.0
2/26 11:30pm 183 6 G 11 33° 94% - - 31° 41.9° 31.6° - - 1018.0
2/26 11:20pm 174 6 G 12 33° 93% - - 31° 41.9° 31.6° - - 1018.0
2/26 11:10pm 180 7 G 12 33° 91% - - 30° 41.9° 31.6° - - 1018.0
2/26 11:00pm 182 8 G 14 33° 89% - - 30° 41.9° 31.6° - - 1018.0
2/26 10:50pm 172 6 G 12 32° 92% - - 30° 41.9° 31.6° - - 1018.0
2/26 10:40pm 170 6 G 11 32° 91% - - 30° 41.9° 31.6° - - 1018.0
2/26 10:30pm 151 4 G 8 32° 91% - - 30° 41.9° 31.6° - - 1018.0
2/26 10:20pm 168 2 G 7 32° 91% - - 30° 41.9° 31.7° - - 1018.0
2/26 10:10pm 108 2 G 6 32° 92% - - 30° 41.9° 31.7° - - 1018.0
2/26 10:00pm 150 1 G 4 32° 92% - - 30° 41.9° 31.7° - - 1018.0
2/26 9:50pm 164 2 G 6 32° 89% - - 29° 41.9° 31.7° - - 1018.0
2/26 9:40pm 263 2 G 4 32° 87% - - 29° 41.9° 32.2° - - 1018.0
2/26 9:30pm 225 3 G 6 33° 88% - - 30° 41.9° 32.2° - - 1018.0
2/26 9:20pm 217 5 G 11 33° 90% - - 30° 41.9° 32.2° - - 1018.0
2/26 9:10pm 211 9 G 17 33° 89% - - 30° 41.9° 32.2° - - 1018.0
2/26 9:00pm 204 10 G 19 33° 88% - - 30° 41.9° 32.2° - - 1018.0
2/26 8:50pm 199 10 G 17 34° 90% - - 31° 41.9° 32.2° - - 1018.0
2/26 8:40pm 203 12 G 20 34° 89% - - 31° 41.9° 32.2° - - 1018.0
2/26 8:30pm 197 9 G 17 34° 91% - - 31° 41.9° 32.2° - - 1018.0
2/26 8:20pm 200 9 G 17 34° 91% - - 32° 41.9° 32.2° - - 1018.0
2/26 8:10pm 205 9 G 17 34° 91% - - 32° 41.9° 32.2° - - 1017.0
2/26 8:00pm 202 7 G 14 34° 92% - - 32° 41.9° 32.2° - - 1017.0
2/26 7:50pm 203 10 G 16 35° 95% - - 34° 41.9° 32.2° - - 1017.0
2/26 7:40pm 199 8 G 13 35° 96% - - 34° 41.9° 32.2° - - 1017.0
2/26 7:30pm 198 8 G 14 36° 96% - - 35° 41.9° 32.2° - - 1017.0
2/26 7:20pm 201 8 G 17 36° 96% - - 35° 41.9° 32.2° - - 1016.0
2/26 7:10pm 198 8 G 17 36° 96% - - 35° 41.9° 32.2° - - 1016.0
2/26 7:00pm 201 7 G 14 37° 95% - - 35° 41.9° 32.2° - - 1016.0
2/26 6:50pm 202 7 G 12 37° 94% - - 35° 41.9° 32.2° - - 1016.0
2/26 6:40pm 200 8 G 14 37° 92% - - 35° 41.9° 32.2° - - 1016.0
2/26 6:30pm 200 8 G 13 37° 93% - - 35° 41.9° 32.2° - - 1016.0
2/26 6:20pm 202 9 G 15 37° 95% - - 35° 41.9° 32.2° - - 1016.0
2/26 6:10pm 209 8 G 17 37° 96% - - 36° 41.9° 32.2° - - 1016.0
2/26 6:00pm 201 8 G 13 37° 95% - - 36° 41.9° 32.2° - - 1016.0
2/26 5:50pm 206 8 G 15 38° 94% - - 36° 41.9° 32.2° - - 1016.0
2/26 5:40pm 218 6 G 11 38° 93% - - 36° 41.9° 32.2° - - 1016.0
2/26 5:30pm 211 7 G 11 38° 93% - - 36° 41.9° 32.2° - - 1016.0
2/26 5:20pm 215 9 G 16 38° 92% - - 36° 41.9° 32.2° - - 1016.0
2/26 5:10pm 220 11 G 20 38° 92% - - 36° 41.9° 32.2° - - 1016.0
2/26 5:00pm 215 8 G 15 38° 94% - - 37° 41.9° 32.2° - - 1016.0